Airfield :
LOGIN :

Register | Disclaimer

   EN    FR    IT 

 










Legend :    VFR   Marginal VFR   IFR   Intensive IFR   Very Intensive IFR
Visi :
Ceiling :
>= 8 km
>= 3000ft
5 to 8 km
1000 to 3000 ft
1500m to 5 km
500 to 1000 ft
800 to 1500m
200 to 500 ft
< 800m
< 200 ft
Symbols :   Thunderstorms  Fog  Heavy snow  Heavy precipitations  Wind > 20 kt
SIGMETs :     Misc.  Thunderstorms  Icing  Turbulence  Mountain Waves  Volcanic Ashes







- Airport Elevation : 49 ft
- IATA code : AOI


LIPY - Ancona Falconara

CURRENT METAR :
  • 151450Z VRB02KT 9999 FEW030 BKN050 13/10 Q0997

EXPIRED METARs :
  • 151350Z 16004KT 110V190 9999 -RA FEW030 BKN050 14/10 Q0997
  • 151250Z 19008KT 9999 FEW030 BKN050 17/09 Q0998

TAF TAF LIPY
Valid from the 15 at 12:00 until the 16 at 12:00 UTC


151100Z 1512/1612 18011KT 9999 SCT030
TEMPO 1512/1602 4000 SHRA
BECMG 1518/1520 29010KT
No reported NOTAMs for that airfield.
1 SIGMET reported for the Milano FIR (LIMM) :
 
Severe turbulence
LIMM SIGMET 8 VALID 151440/151840 LIIP
LIMM MILANO FIR SEV TURB OBS WI N4424 E00903 - N4501 E01033 - N4424 E01231 - N4356 E01125 - N4354 E01017 - N4424 E00903 FL150/250 STNR NC=



MET'MAP, your aeronautical weather chart ! - Copyright ORBIFLY December 2007 - Disclaimer

ORBIFLY MET'MAP TEAM :

Programming & Development : Alexandra Zaïnal
Concept & Development : Baudouin d'Aumeries
Co-Development & Prog : Marc-Olivier Méhu
Technical & hardware support : Manuel Goepfert

Contact : metmap@orbifly.com




SOURCES & CREDITS :

   NOAA